Flight Track Log - Related Links

Times and Time Zones

All times are in EDT time to prevent confusion due to time zone crossing. See the TAM3110 flight status page for this flight to view local times or setup timezone preferences in your user account.

Time Position Orientation Groundspeed Altitude Reporting Facility
EDT Latitude Longitude Course Direction KTS MPH feet Rate Location/Type
Sat 07:35:00 PM -25.9912 -47.7445 23° Northeast  Level Estimated
Sat 07:36:00 PM -25.9289 -47.7152 23° Northeast  Level Estimated
Sat 07:37:00 PM -25.8666 -47.6859 23° Northeast  Level Estimated
Sat 07:38:00 PM -25.8043 -47.6567 23° Northeast  Level Estimated
Sat 07:39:00 PM -25.7420 -47.6275 23° Northeast  Level Estimated
Sat 07:40:00 PM -25.6797 -47.5984 23° Northeast  Level Estimated
Sat 07:41:00 PM -25.6174 -47.5692 23° Northeast  Level Estimated
Sat 07:42:00 PM -25.5551 -47.5401 23° Northeast  Level Estimated
Sat 07:43:00 PM -25.4928 -47.5111 23° Northeast  Level Estimated
Sat 07:44:00 PM -25.4304 -47.4820 23° Northeast  Level Estimated
Sat 07:45:00 PM -25.3681 -47.4530 23° Northeast  Level Estimated
Sat 07:46:00 PM -25.3058 -47.4240 23° Northeast  Level Estimated
Sat 07:47:00 PM -25.2434 -47.3951 23° Northeast  Level Estimated
Sat 07:48:00 PM -25.1811 -47.3662 23° Northeast  Level Estimated
Sat 07:49:00 PM -25.1187 -47.3373 23° Northeast  Level Estimated
Sat 07:50:00 PM -25.0563 -47.3084 23° Northeast  Level Estimated
Sat 07:51:00 PM -24.9940 -47.2796 23° Northeast  Level Estimated
Sat 07:52:00 PM -24.9316 -47.2508 23° Northeast  Level Estimated
Sat 07:53:00 PM -24.8692 -47.2220 23° Northeast  Level Estimated
Sat 07:54:00 PM -24.8068 -47.1933 23° Northeast  Level Estimated
Sat 07:55:00 PM -24.7444 -47.1646 23° Northeast  Level Estimated
Sat 07:56:00 PM -24.6821 -47.1359 23° Northeast  Level Estimated
Sat 07:57:00 PM -24.6196 -47.1072 23° Northeast  Level Estimated
Sat 07:58:00 PM -24.5572 -47.0786 23° Northeast  Level Estimated
Sat 07:59:00 PM -24.4948 -47.0500 23° Northeast  Level Estimated
Sat 08:00:00 PM -24.4324 -47.0214 23° Northeast  Level Estimated
Sat 08:01:00 PM -24.3700 -46.9929 23° Northeast  Level Estimated
Sat 08:02:00 PM -24.3076 -46.9644 23° Northeast  Level Estimated
Sat 08:03:00 PM -24.2451 -46.9359 23° Northeast  Level Estimated
Sat 08:04:00 PM -24.1827 -46.9075 23° Northeast  Level Estimated
Sat 08:05:00 PM -24.1203 -46.8790 23° Northeast  Level Estimated
Sat 08:06:00 PM -24.0578 -46.8506 23° Northeast  Level Estimated
Sat 08:07:00 PM -23.9953 -46.8223 23° Northeast  Level Estimated
Sat 08:08:00 PM -23.9329 -46.7939 23° Northeast  Level Estimated
Sat 08:09:00 PM -23.8704 -46.7656 23° Northeast  Level Estimated
Sat 08:10:00 PM -23.8079 -46.7373 23° Northeast  Level Estimated
Sat 08:11:00 PM -23.7455 -46.7090 22° Northeast  Level Estimated

Login

Don't have an account? Register now (free) for customized features, flight alerts, and more!